Pearson, Arkansas
Current Conditions -  °F | °C
As of 5:30 AM on Friday 24 Oct 2014 (Local Time) from KSRC Reporting Station
Haze Haze  
Wind Chill:   Ceiling: Unl
Heat Index:   Visibility: 4mi
Dew Point:   Wind: 0mph
Humidity: 100%   Direction: NA
Pressure: 30.16"   Gusts: NA
Location:  35.4081°N, 92.1263°W
Report Text: KSRC 241030Z AUTO 00000KT 4SM BR CLR 07/07 A3016 RMK AO2 TSNO
Loading
Personal Weather Stations






























Interactive Weather Map
Tropical Storm Tracking
New forecast layout! Learn more

10-Day Weather Forecast

Advertisements
Track Severe Weather on mobile